createdAt,value
2022-11-15T00:03:19.417Z,9.64
2022-11-15T00:08:41.316Z,9.31
2022-11-15T00:14:04.575Z,9.16
2022-11-15T00:19:26.574Z,8.96
2022-11-15T00:24:48.796Z,8.84
2022-11-15T00:30:13.838Z,8.82
2022-11-15T00:35:37.084Z,8.91
2022-11-15T00:40:58.744Z,8.98
2022-11-15T00:46:22.562Z,9.31
2022-11-15T00:51:44.387Z,9.57
2022-11-15T00:57:06.280Z,9.78
2022-11-15T01:02:30.195Z,9.76
2022-11-15T01:07:53.698Z,9.50
2022-11-15T01:13:15.834Z,9.27
2022-11-15T01:18:39.450Z,8.86
2022-11-15T01:24:01.338Z,8.51
2022-11-15T01:29:23.293Z,8.25
2022-11-15T01:34:46.723Z,7.59
2022-11-15T01:40:09.528Z,7.30
2022-11-15T01:45:31.919Z,7.06
2022-11-15T01:50:55.190Z,6.85
2022-11-15T01:56:22.648Z,6.72
2022-11-15T02:01:45.309Z,6.71
2022-11-15T02:07:12.055Z,7.11
2022-11-15T02:12:35.282Z,8.15
2022-11-15T02:18:11.857Z,8.81
2022-11-15T02:24:08.493Z,9.06
2022-11-15T02:29:43.663Z,9.51
2022-11-15T02:35:18.750Z,9.62
2022-11-15T02:40:46.863Z,9.61
2022-11-15T02:46:15.189Z,9.58
2022-11-15T02:51:39.368Z,9.55
2022-11-15T02:57:06.021Z,9.41
2022-11-15T03:02:51.163Z,9.30
2022-11-15T03:08:24.496Z,9.15
2022-11-15T03:13:55.921Z,9.10
2022-11-15T03:19:26.155Z,9.25
2022-11-15T03:24:54.152Z,9.44
2022-11-15T03:30:16.726Z,9.40
2022-11-15T03:35:42.834Z,9.47
2022-11-15T03:41:16.111Z,9.25
2022-11-15T03:46:42.472Z,9.20
2022-11-15T03:52:06.717Z,9.40
2022-11-15T03:57:30.359Z,9.39
2022-11-15T04:02:52.351Z,9.34
2022-11-15T04:08:14.201Z,9.06
2022-11-15T04:13:37.687Z,8.81
2022-11-15T04:19:17.279Z,8.74
2022-11-15T04:24:39.408Z,8.64
2022-11-15T04:30:02.921Z,8.45
2022-11-15T04:35:24.770Z,8.01
2022-11-15T04:40:46.869Z,7.79
2022-11-15T04:46:10.339Z,7.52
2022-11-15T04:51:32.114Z,7.31
2022-11-15T04:56:54.250Z,7.27
2022-11-15T05:02:17.714Z,6.90
2022-11-15T05:07:39.683Z,6.99
2022-11-15T05:13:01.766Z,6.79
2022-11-15T05:18:25.328Z,6.61
2022-11-15T05:23:47.205Z,6.87
2022-11-15T05:29:11.749Z,7.03
2022-11-15T05:34:35.114Z,7.06
2022-11-15T05:39:57.034Z,6.96
2022-11-15T05:45:25.460Z,6.91
2022-11-15T05:50:50.649Z,7.01
2022-11-15T05:56:13.923Z,7.51
2022-11-15T06:01:36.268Z,7.70
2022-11-15T06:07:00.595Z,8.26
2022-11-15T06:12:22.768Z,8.41
2022-11-15T06:17:44.772Z,8.50
2022-11-15T06:23:08.334Z,8.47
2022-11-15T06:28:31.259Z,8.46
2022-11-15T06:33:53.206Z,8.28
2022-11-15T06:39:17.043Z,7.70
2022-11-15T06:44:39.010Z,7.34
2022-11-15T06:50:01.191Z,7.14
2022-11-15T06:55:24.585Z,7.05
2022-11-15T07:00:46.630Z,6.70
2022-11-15T07:06:10.803Z,6.75
2022-11-15T07:11:34.900Z,6.35
2022-11-15T07:16:56.945Z,6.17
2022-11-15T07:22:19.246Z,6.17
2022-11-15T07:27:42.625Z,6.36
2022-11-15T07:33:05.709Z,6.52
2022-11-15T07:38:27.530Z,6.81
2022-11-15T07:43:53.724Z,7.17
2022-11-15T07:49:16.034Z,7.12
2022-11-15T07:54:38.200Z,6.96
2022-11-15T08:00:01.401Z,6.96
2022-11-15T08:05:23.436Z,7.40
2022-11-15T08:10:45.432Z,8.02
2022-11-15T08:16:09.121Z,8.93
2022-11-15T08:21:31.457Z,9.70
2022-11-15T08:26:53.600Z,9.83
2022-11-15T08:32:18.797Z,10.26
2022-11-15T08:37:41.259Z,10.75
2022-11-15T08:43:03.700Z,11.13
2022-11-15T08:48:27.738Z,11.36
2022-11-15T08:53:50.733Z,11.57
2022-11-15T08:59:13.091Z,11.69
2022-11-15T09:04:36.610Z,11.84
2022-11-15T09:09:58.751Z,12.08
2022-11-15T09:15:21.134Z,12.23
2022-11-15T09:20:44.442Z,12.37
2022-11-15T09:26:07.576Z,12.39
2022-11-15T09:31:30.559Z,12.67
2022-11-15T09:36:53.795Z,13.13
2022-11-15T09:42:51.619Z,12.93
2022-11-15T09:48:49.184Z,13.42
2022-11-15T10:00:30.655Z,13.37
2022-11-15T10:05:29.778Z,13.65
2022-11-15T10:10:38.682Z,13.83
2022-11-15T10:15:48.712Z,13.84
2022-11-15T10:20:58.016Z,13.65
2022-11-15T10:26:06.995Z,14.16
2022-11-15T10:31:24.747Z,14.30
2022-11-15T10:36:29.575Z,14.19
2022-11-15T10:41:44.920Z,14.24
2022-11-15T10:46:51.621Z,14.27
2022-11-15T10:51:58.374Z,14.70
2022-11-15T10:57:08.869Z,14.41
2022-11-15T11:02:40.573Z,14.48
2022-11-15T11:07:58.913Z,14.44
2022-11-15T11:13:17.079Z,15.14
2022-11-15T11:18:28.405Z,15.05
2022-11-15T11:23:46.961Z,14.58
2022-11-15T11:28:59.588Z,14.90
2022-11-15T11:34:15.132Z,15.09
2022-11-15T11:39:30.991Z,15.22
2022-11-15T11:44:44.136Z,15.06
2022-11-15T11:49:53.285Z,15.28
2022-11-15T11:55:03.057Z,15.24
2022-11-15T12:00:19.984Z,15.36
2022-11-15T12:05:31.071Z,15.46
2022-11-15T12:10:37.142Z,15.62
2022-11-15T12:15:47.937Z,15.85
2022-11-15T12:20:57.332Z,16.14
2022-11-15T12:26:06.235Z,15.94
2022-11-15T12:31:19.817Z,16.22
2022-11-15T12:36:38.956Z,16.67
2022-11-15T12:41:44.663Z,16.44
2022-11-15T12:47:25.723Z,16.18
2022-11-15T12:52:30.068Z,16.74
2022-11-15T12:57:42.184Z,16.83
2022-11-15T13:02:49.461Z,16.51
2022-11-15T13:08:00.654Z,16.78
2022-11-15T13:13:06.208Z,16.84
2022-11-15T13:18:40.501Z,16.66
2022-11-15T13:23:44.268Z,16.66
2022-11-15T13:28:50.600Z,16.43
2022-11-15T13:33:59.235Z,16.20
2022-11-15T13:39:05.671Z,15.92
2022-11-15T13:44:22.339Z,15.87
2022-11-15T13:49:33.748Z,15.80
2022-11-15T13:54:44.084Z,15.76
2022-11-15T13:59:50.858Z,15.74
2022-11-15T14:04:58.109Z,15.63
2022-11-15T14:10:26.453Z,15.35
2022-11-15T14:15:33.862Z,15.01
2022-11-15T14:20:41.394Z,15.03
2022-11-15T14:25:54.763Z,14.80
2022-11-15T14:31:00.135Z,14.82
2022-11-15T14:36:07.861Z,14.99
2022-11-15T14:41:22.764Z,14.63
2022-11-15T14:46:26.234Z,14.53
2022-11-15T14:51:31.156Z,14.40
2022-11-15T14:56:34.723Z,14.01
2022-11-15T15:01:38.693Z,14.04
2022-11-15T15:06:43.772Z,13.87
2022-11-15T15:11:47.332Z,13.73
2022-11-15T15:16:50.941Z,13.53
2022-11-15T15:21:56.074Z,13.41
2022-11-15T15:26:59.730Z,13.16
2022-11-15T15:32:03.525Z,12.91
2022-11-15T15:37:24.940Z,12.86
2022-11-15T15:42:28.599Z,12.59
2022-11-15T15:47:32.173Z,12.55
2022-11-15T15:52:37.362Z,12.49
2022-11-15T15:57:41.024Z,12.50
2022-11-15T16:02:44.812Z,12.38
2022-11-15T16:07:50.112Z,12.25
2022-11-15T16:12:54.602Z,12.20
2022-11-15T16:17:59.863Z,12.19
2022-11-15T16:23:09.376Z,12.10
2022-11-15T16:28:19.678Z,12.00
2022-11-15T16:33:23.370Z,11.75
2022-11-15T16:38:29.451Z,11.77
2022-11-15T16:43:33.450Z,11.68
2022-11-15T16:48:37.264Z,11.48
2022-11-15T16:53:42.917Z,11.44
2022-11-15T16:58:46.482Z,11.30
2022-11-15T17:03:50.252Z,11.07
2022-11-15T17:08:56.724Z,11.18
2022-11-15T17:14:00.956Z,11.14
2022-11-15T17:19:04.951Z,10.98
2022-11-15T17:24:11.705Z,10.87
2022-11-15T17:29:15.638Z,10.78
2022-11-15T17:34:19.360Z,10.84
2022-11-15T17:39:25.001Z,10.79
2022-11-15T17:44:28.709Z,10.79
2022-11-15T17:49:32.479Z,10.45
2022-11-15T17:54:37.554Z,10.65
2022-11-15T17:59:41.317Z,10.59
2022-11-15T18:04:44.977Z,10.51
2022-11-15T18:09:50.026Z,10.35
2022-11-15T18:14:53.675Z,10.28
2022-11-15T18:19:57.298Z,10.13
2022-11-15T18:25:02.708Z,10.23
2022-11-15T18:30:07.181Z,10.38
2022-11-15T18:35:11.009Z,10.29
2022-11-15T18:40:16.562Z,10.06
2022-11-15T18:45:24.133Z,9.87
2022-11-15T18:50:28.114Z,10.01
2022-11-15T18:55:32.991Z,10.01
2022-11-15T19:00:36.619Z,10.02
2022-11-15T19:05:40.152Z,9.98
2022-11-15T19:10:45.152Z,9.99
2022-11-15T19:15:49.343Z,9.87
2022-11-15T19:20:52.953Z,9.72
2022-11-15T19:25:59.592Z,9.71
2022-11-15T19:31:07.872Z,9.59
2022-11-15T19:36:13.865Z,9.63
2022-11-15T19:41:20.550Z,9.68
2022-11-15T19:46:26.888Z,9.65
2022-11-15T19:51:31.397Z,9.51
2022-11-15T19:56:36.630Z,9.62
2022-11-15T20:01:40.496Z,9.60
2022-11-15T20:06:44.611Z,9.56
2022-11-15T20:11:49.463Z,9.57
2022-11-15T20:16:54.583Z,9.54
2022-11-15T20:21:58.324Z,9.62
2022-11-15T20:27:03.245Z,9.70
2022-11-15T20:32:06.901Z,9.78
2022-11-15T20:37:10.537Z,9.81
2022-11-15T20:42:15.772Z,9.75
2022-11-15T20:47:19.315Z,9.60
2022-11-15T20:52:22.938Z,9.50
2022-11-15T20:57:28.233Z,9.53
2022-11-15T21:02:32.310Z,9.58
2022-11-15T21:07:36.181Z,9.56
2022-11-15T21:12:41.261Z,9.40
2022-11-15T21:17:44.711Z,9.57
2022-11-15T21:22:49.640Z,9.22
2022-11-15T21:27:55.192Z,9.23
2022-11-15T21:33:00.103Z,9.38
2022-11-15T21:38:03.755Z,9.29
2022-11-15T21:43:09.014Z,9.43
2022-11-15T21:48:12.634Z,10.19
2022-11-15T21:53:16.162Z,10.78
2022-11-15T21:58:21.750Z,10.87
2022-11-15T22:03:25.362Z,10.36
2022-11-15T22:08:29.398Z,9.96
2022-11-15T22:13:34.374Z,9.73
2022-11-15T22:18:38.873Z,9.78
2022-11-15T22:23:43.469Z,9.52
2022-11-15T22:28:48.646Z,9.49
2022-11-15T22:33:52.262Z,9.39
2022-11-15T22:38:56.331Z,9.32
2022-11-15T22:44:01.841Z,9.28
2022-11-15T22:49:06.780Z,9.31
2022-11-15T22:54:10.472Z,9.11
2022-11-15T22:59:15.470Z,9.16
2022-11-15T23:04:19.277Z,9.71
2022-11-15T23:09:22.946Z,9.47
2022-11-15T23:14:28.258Z,9.43
2022-11-15T23:19:31.821Z,9.47
2022-11-15T23:24:35.785Z,9.43
2022-11-15T23:29:54.629Z,9.24
2022-11-15T23:34:58.209Z,9.15
2022-11-15T23:40:01.944Z,9.26
2022-11-15T23:45:08.223Z,9.15
2022-11-15T23:50:12.551Z,9.06
2022-11-15T23:55:16.299Z,9.11
